sensor_id;sensor_type;location;lat;lon;timestamp;temperature;humidity
10512;DHT22;5304;48.604;2.096;2022-09-16T00:02:20;14.70;99.90
10512;DHT22;5304;48.604;2.096;2022-09-16T00:05:05;14.60;99.90
10512;DHT22;5304;48.604;2.096;2022-09-16T00:07:50;14.70;99.90
10512;DHT22;5304;48.604;2.096;2022-09-16T00:10:34;14.60;99.90
10512;DHT22;5304;48.604;2.096;2022-09-16T00:13:19;14.50;99.90
10512;DHT22;5304;48.604;2.096;2022-09-16T00:16:07;14.60;99.90
10512;DHT22;5304;48.604;2.096;2022-09-16T00:18:54;14.50;99.90
10512;DHT22;5304;48.604;2.096;2022-09-16T00:21:38;14.60;99.90
10512;DHT22;5304;48.604;2.096;2022-09-16T00:24:22;14.60;99.90
10512;DHT22;5304;48.604;2.096;2022-09-16T00:27:07;14.70;99.90
10512;DHT22;5304;48.604;2.096;2022-09-16T00:29:51;14.90;99.90
10512;DHT22;5304;48.604;2.096;2022-09-16T00:32:37;15.00;99.90
10512;DHT22;5304;48.604;2.096;2022-09-16T00:35:21;15.10;99.90
10512;DHT22;5304;48.604;2.096;2022-09-16T00:38:06;15.20;99.90
10512;DHT22;5304;48.604;2.096;2022-09-16T00:40:50;15.30;99.90
10512;DHT22;5304;48.604;2.096;2022-09-16T00:44:05;15.30;99.90
10512;DHT22;5304;48.604;2.096;2022-09-16T00:46:50;15.50;99.90
10512;DHT22;5304;48.604;2.096;2022-09-16T00:49:35;15.50;99.90
10512;DHT22;5304;48.604;2.096;2022-09-16T00:52:20;15.50;99.90
10512;DHT22;5304;48.604;2.096;2022-09-16T00:55:08;15.50;99.90
10512;DHT22;5304;48.604;2.096;2022-09-16T00:57:57;15.50;99.90
10512;DHT22;5304;48.604;2.096;2022-09-16T01:00:43;15.60;99.90
10512;DHT22;5304;48.604;2.096;2022-09-16T01:03:29;15.50;99.90
10512;DHT22;5304;48.604;2.096;2022-09-16T01:06:15;15.50;99.90
10512;DHT22;5304;48.604;2.096;2022-09-16T01:09:01;15.50;99.90
10512;DHT22;5304;48.604;2.096;2022-09-16T01:11:47;15.40;99.90
10512;DHT22;5304;48.604;2.096;2022-09-16T01:14:31;15.40;99.90
10512;DHT22;5304;48.604;2.096;2022-09-16T01:17:55;15.50;99.90
10512;DHT22;5304;48.604;2.096;2022-09-16T01:30:45;15.20;99.90
10512;DHT22;5304;48.604;2.096;2022-09-16T01:45:59;15.20;99.90
10512;DHT22;5304;48.604;2.096;2022-09-16T01:55:27;15.30;99.90
10512;DHT22;5304;48.604;2.096;2022-09-16T02:04:18;15.30;99.90
10512;DHT22;5304;48.604;2.096;2022-09-16T02:07:05;15.30;99.90
10512;DHT22;5304;48.604;2.096;2022-09-16T02:10:00;15.10;99.90
10512;DHT22;5304;48.604;2.096;2022-09-16T02:12:52;15.00;99.90
10512;DHT22;5304;48.604;2.096;2022-09-16T02:15:39;15.00;99.90
10512;DHT22;5304;48.604;2.096;2022-09-16T02:18:29;15.10;99.90
10512;DHT22;5304;48.604;2.096;2022-09-16T02:21:15;15.10;99.90
10512;DHT22;5304;48.604;2.096;2022-09-16T02:24:03;15.10;99.90
10512;DHT22;5304;48.604;2.096;2022-09-16T02:26:55;15.10;99.90
10512;DHT22;5304;48.604;2.096;2022-09-16T02:29:50;15.20;99.90
10512;DHT22;5304;48.604;2.096;2022-09-16T02:32:42;15.20;99.90
10512;DHT22;5304;48.604;2.096;2022-09-16T02:35:28;15.00;99.90
10512;DHT22;5304;48.604;2.096;2022-09-16T02:38:27;15.00;99.90
10512;DHT22;5304;48.604;2.096;2022-09-16T02:41:14;15.10;99.90
10512;DHT22;5304;48.604;2.096;2022-09-16T02:44:00;15.00;99.90
10512;DHT22;5304;48.604;2.096;2022-09-16T02:49:43;15.00;99.90
10512;DHT22;5304;48.604;2.096;2022-09-16T02:55:37;15.00;99.90
10512;DHT22;5304;48.604;2.096;2022-09-16T02:58:28;14.90;99.90
10512;DHT22;5304;48.604;2.096;2022-09-16T03:01:13;14.90;99.90
10512;DHT22;5304;48.604;2.096;2022-09-16T03:03:57;14.80;99.90
10512;DHT22;5304;48.604;2.096;2022-09-16T03:06:42;14.80;99.90
10512;DHT22;5304;48.604;2.096;2022-09-16T03:09:27;14.70;99.90
10512;DHT22;5304;48.604;2.096;2022-09-16T03:15:25;14.70;99.90
10512;DHT22;5304;48.604;2.096;2022-09-16T03:21:28;14.80;99.90
10512;DHT22;5304;48.604;2.096;2022-09-16T03:27:10;14.90;99.90
10512;DHT22;5304;48.604;2.096;2022-09-16T03:30:01;14.90;99.90
10512;DHT22;5304;48.604;2.096;2022-09-16T03:32:59;14.90;99.90
10512;DHT22;5304;48.604;2.096;2022-09-16T03:35:47;14.80;99.90
10512;DHT22;5304;48.604;2.096;2022-09-16T03:38:35;14.70;99.90
10512;DHT22;5304;48.604;2.096;2022-09-16T03:41:22;14.70;99.90
10512;DHT22;5304;48.604;2.096;2022-09-16T03:44:07;14.70;99.90
10512;DHT22;5304;48.604;2.096;2022-09-16T03:46:51;14.70;99.90
10512;DHT22;5304;48.604;2.096;2022-09-16T03:49:36;14.70;99.90
10512;DHT22;5304;48.604;2.096;2022-09-16T03:52:20;14.60;99.90
10512;DHT22;5304;48.604;2.096;2022-09-16T03:55:06;14.60;99.90
10512;DHT22;5304;48.604;2.096;2022-09-16T03:57:52;14.50;99.90
10512;DHT22;5304;48.604;2.096;2022-09-16T04:00:37;14.40;99.90
10512;DHT22;5304;48.604;2.096;2022-09-16T04:03:21;14.30;99.90
10512;DHT22;5304;48.604;2.096;2022-09-16T04:06:06;14.20;99.90
10512;DHT22;5304;48.604;2.096;2022-09-16T04:08:50;14.20;99.90
10512;DHT22;5304;48.604;2.096;2022-09-16T04:11:38;14.10;99.90
10512;DHT22;5304;48.604;2.096;2022-09-16T04:14:22;14.10;99.90
10512;DHT22;5304;48.604;2.096;2022-09-16T04:17:08;14.10;99.90
10512;DHT22;5304;48.604;2.096;2022-09-16T04:19:52;14.10;99.90
10512;DHT22;5304;48.604;2.096;2022-09-16T04:22:37;14.00;99.90
10512;DHT22;5304;48.604;2.096;2022-09-16T04:25:21;14.00;99.90
10512;DHT22;5304;48.604;2.096;2022-09-16T04:28:06;13.90;99.90
10512;DHT22;5304;48.604;2.096;2022-09-16T04:30:51;13.90;99.90
10512;DHT22;5304;48.604;2.096;2022-09-16T04:33:35;13.80;99.90
10512;DHT22;5304;48.604;2.096;2022-09-16T04:36:20;13.70;99.90
10512;DHT22;5304;48.604;2.096;2022-09-16T04:39:05;13.60;99.90
10512;DHT22;5304;48.604;2.096;2022-09-16T04:41:50;13.60;99.90
10512;DHT22;5304;48.604;2.096;2022-09-16T04:44:34;13.50;99.90
10512;DHT22;5304;48.604;2.096;2022-09-16T04:47:19;13.50;99.90
10512;DHT22;5304;48.604;2.096;2022-09-16T04:50:03;13.50;99.90
10512;DHT22;5304;48.604;2.096;2022-09-16T04:52:48;13.40;99.90
10512;DHT22;5304;48.604;2.096;2022-09-16T04:55:34;13.40;99.90
10512;DHT22;5304;48.604;2.096;2022-09-16T04:58:19;13.40;99.90
10512;DHT22;5304;48.604;2.096;2022-09-16T05:01:08;13.40;99.90
10512;DHT22;5304;48.604;2.096;2022-09-16T05:04:00;13.40;99.90
10512;DHT22;5304;48.604;2.096;2022-09-16T05:06:45;13.20;99.90
10512;DHT22;5304;48.604;2.096;2022-09-16T05:09:29;13.20;99.90
10512;DHT22;5304;48.604;2.096;2022-09-16T05:12:14;13.10;99.90
10512;DHT22;5304;48.604;2.096;2022-09-16T05:14:58;12.90;99.90
10512;DHT22;5304;48.604;2.096;2022-09-16T05:17:43;12.80;99.90
10512;DHT22;5304;48.604;2.096;2022-09-16T05:20:28;12.70;99.90
10512;DHT22;5304;48.604;2.096;2022-09-16T05:23:13;12.70;99.90
10512;DHT22;5304;48.604;2.096;2022-09-16T05:26:12;12.60;99.90
10512;DHT22;5304;48.604;2.096;2022-09-16T05:29:05;12.50;99.90
10512;DHT22;5304;48.604;2.096;2022-09-16T05:31:50;12.40;99.90
10512;DHT22;5304;48.604;2.096;2022-09-16T05:34:34;12.40;99.90
10512;DHT22;5304;48.604;2.096;2022-09-16T05:37:20;12.30;99.90
10512;DHT22;5304;48.604;2.096;2022-09-16T05:40:04;12.30;99.90
10512;DHT22;5304;48.604;2.096;2022-09-16T05:42:49;12.30;99.90
10512;DHT22;5304;48.604;2.096;2022-09-16T05:45:34;12.20;99.90
10512;DHT22;5304;48.604;2.096;2022-09-16T05:48:18;12.10;99.90
10512;DHT22;5304;48.604;2.096;2022-09-16T05:51:05;12.10;99.90
10512;DHT22;5304;48.604;2.096;2022-09-16T05:53:50;12.10;99.90
10512;DHT22;5304;48.604;2.096;2022-09-16T05:56:35;12.10;99.90
10512;DHT22;5304;48.604;2.096;2022-09-16T05:59:20;12.10;99.90
10512;DHT22;5304;48.604;2.096;2022-09-16T06:02:05;12.10;99.90
10512;DHT22;5304;48.604;2.096;2022-09-16T06:04:50;12.10;99.90
10512;DHT22;5304;48.604;2.096;2022-09-16T06:07:34;12.10;99.90
10512;DHT22;5304;48.604;2.096;2022-09-16T06:10:19;12.10;99.90
10512;DHT22;5304;48.604;2.096;2022-09-16T06:13:03;12.10;99.90
10512;DHT22;5304;48.604;2.096;2022-09-16T06:15:49;12.10;99.90
10512;DHT22;5304;48.604;2.096;2022-09-16T06:18:40;12.20;99.90
10512;DHT22;5304;48.604;2.096;2022-09-16T06:21:25;12.30;99.90
10512;DHT22;5304;48.604;2.096;2022-09-16T06:24:10;12.30;99.90
10512;DHT22;5304;48.604;2.096;2022-09-16T06:26:55;12.40;99.90
10512;DHT22;5304;48.604;2.096;2022-09-16T06:29:40;12.40;99.90
10512;DHT22;5304;48.604;2.096;2022-09-16T06:32:24;12.60;99.90
10512;DHT22;5304;48.604;2.096;2022-09-16T06:35:09;12.60;99.90
10512;DHT22;5304;48.604;2.096;2022-09-16T06:37:54;12.70;99.90
10512;DHT22;5304;48.604;2.096;2022-09-16T06:40:39;12.90;99.90
10512;DHT22;5304;48.604;2.096;2022-09-16T06:43:23;12.90;99.90
10512;DHT22;5304;48.604;2.096;2022-09-16T06:46:12;13.00;99.90
10512;DHT22;5304;48.604;2.096;2022-09-16T06:48:58;13.20;99.90
10512;DHT22;5304;48.604;2.096;2022-09-16T06:51:43;13.20;99.90
10512;DHT22;5304;48.604;2.096;2022-09-16T06:54:27;13.20;99.90
10512;DHT22;5304;48.604;2.096;2022-09-16T06:57:12;13.20;99.90
10512;DHT22;5304;48.604;2.096;2022-09-16T06:59:56;13.30;99.90
10512;DHT22;5304;48.604;2.096;2022-09-16T07:02:41;13.40;99.90
10512;DHT22;5304;48.604;2.096;2022-09-16T07:05:26;13.40;99.90
10512;DHT22;5304;48.604;2.096;2022-09-16T07:08:10;13.50;99.90
10512;DHT22;5304;48.604;2.096;2022-09-16T07:10:58;13.60;99.90
10512;DHT22;5304;48.604;2.096;2022-09-16T07:13:43;13.60;99.90
10512;DHT22;5304;48.604;2.096;2022-09-16T07:16:28;13.50;99.90
10512;DHT22;5304;48.604;2.096;2022-09-16T07:19:13;13.50;99.90
10512;DHT22;5304;48.604;2.096;2022-09-16T07:21:57;13.70;99.90
10512;DHT22;5304;48.604;2.096;2022-09-16T07:24:42;13.80;99.90
10512;DHT22;5304;48.604;2.096;2022-09-16T07:27:26;14.10;99.90
10512;DHT22;5304;48.604;2.096;2022-09-16T07:30:11;14.60;99.90
10512;DHT22;5304;48.604;2.096;2022-09-16T07:32:56;15.30;99.90
10512;DHT22;5304;48.604;2.096;2022-09-16T07:35:41;15.90;99.90
10512;DHT22;5304;48.604;2.096;2022-09-16T07:38:26;16.00;99.90
10512;DHT22;5304;48.604;2.096;2022-09-16T07:41:15;15.90;99.90
10512;DHT22;5304;48.604;2.096;2022-09-16T07:44:00;15.50;99.90
10512;DHT22;5304;48.604;2.096;2022-09-16T07:46:45;15.40;99.90
10512;DHT22;5304;48.604;2.096;2022-09-16T07:49:31;15.30;99.90
10512;DHT22;5304;48.604;2.096;2022-09-16T07:52:15;15.30;99.90
10512;DHT22;5304;48.604;2.096;2022-09-16T07:55:00;15.40;99.90
10512;DHT22;5304;48.604;2.096;2022-09-16T07:57:44;15.40;99.90
10512;DHT22;5304;48.604;2.096;2022-09-16T08:00:29;15.40;99.90
10512;DHT22;5304;48.604;2.096;2022-09-16T08:03:13;15.60;99.90
10512;DHT22;5304;48.604;2.096;2022-09-16T08:06:02;15.50;99.90
10512;DHT22;5304;48.604;2.096;2022-09-16T08:08:47;15.70;99.90
10512;DHT22;5304;48.604;2.096;2022-09-16T08:11:32;16.20;99.90
10512;DHT22;5304;48.604;2.096;2022-09-16T08:14:16;17.80;99.90
10512;DHT22;5304;48.604;2.096;2022-09-16T08:17:01;19.70;99.90
10512;DHT22;5304;48.604;2.096;2022-09-16T08:19:46;21.50;99.90
10512;DHT22;5304;48.604;2.096;2022-09-16T08:22:31;22.70;99.90
10512;DHT22;5304;48.604;2.096;2022-09-16T08:25:15;23.70;99.90
10512;DHT22;5304;48.604;2.096;2022-09-16T08:28:00;24.70;99.90
10512;DHT22;5304;48.604;2.096;2022-09-16T08:30:44;24.60;99.90
10512;DHT22;5304;48.604;2.096;2022-09-16T08:33:29;23.90;99.90
10512;DHT22;5304;48.604;2.096;2022-09-16T08:36:17;22.60;99.90
10512;DHT22;5304;48.604;2.096;2022-09-16T08:39:02;21.10;99.90
10512;DHT22;5304;48.604;2.096;2022-09-16T08:44:59;19.90;99.90
10512;DHT22;5304;48.604;2.096;2022-09-16T08:47:59;20.20;99.90
10512;DHT22;5304;48.604;2.096;2022-09-16T08:50:50;21.10;99.90
10512;DHT22;5304;48.604;2.096;2022-09-16T08:53:46;22.10;99.90
10512;DHT22;5304;48.604;2.096;2022-09-16T08:56:33;21.80;99.90
10512;DHT22;5304;48.604;2.096;2022-09-16T08:59:24;21.40;99.90
10512;DHT22;5304;48.604;2.096;2022-09-16T09:08:33;20.00;99.90
10512;DHT22;5304;48.604;2.096;2022-09-16T09:14:33;20.30;99.90
10512;DHT22;5304;48.604;2.096;2022-09-16T09:24:11;21.10;99.90
10512;DHT22;5304;48.604;2.096;2022-09-16T09:30:19;19.90;99.90
10512;DHT22;5304;48.604;2.096;2022-09-16T09:45:28;18.60;99.90
10512;DHT22;5304;48.604;2.096;2022-09-16T09:48:21;18.50;99.90
10512;DHT22;5304;48.604;2.096;2022-09-16T09:54:29;18.40;99.90
10512;DHT22;5304;48.604;2.096;2022-09-16T09:57:43;18.20;99.90
10512;DHT22;5304;48.604;2.096;2022-09-16T10:00:31;18.20;99.90
10512;DHT22;5304;48.604;2.096;2022-09-16T10:03:17;18.30;99.90
10512;DHT22;5304;48.604;2.096;2022-09-16T10:06:01;18.20;99.90
10512;DHT22;5304;48.604;2.096;2022-09-16T10:08:50;18.30;99.90
10512;DHT22;5304;48.604;2.096;2022-09-16T10:11:48;18.50;99.90
10512;DHT22;5304;48.604;2.096;2022-09-16T10:14:36;18.50;99.90
10512;DHT22;5304;48.604;2.096;2022-09-16T10:17:21;18.60;99.90
10512;DHT22;5304;48.604;2.096;2022-09-16T10:23:14;18.80;99.90
10512;DHT22;5304;48.604;2.096;2022-09-16T10:26:20;18.90;99.90
10512;DHT22;5304;48.604;2.096;2022-09-16T10:29:16;18.90;99.90
10512;DHT22;5304;48.604;2.096;2022-09-16T10:32:05;18.90;99.90
10512;DHT22;5304;48.604;2.096;2022-09-16T10:34:53;18.80;99.90
10512;DHT22;5304;48.604;2.096;2022-09-16T10:37:39;18.80;99.90
10512;DHT22;5304;48.604;2.096;2022-09-16T10:40:28;18.80;99.90
10512;DHT22;5304;48.604;2.096;2022-09-16T10:43:14;18.90;99.90
10512;DHT22;5304;48.604;2.096;2022-09-16T10:45:59;19.10;99.90
10512;DHT22;5304;48.604;2.096;2022-09-16T10:48:44;19.20;99.90
10512;DHT22;5304;48.604;2.096;2022-09-16T10:51:30;19.20;99.90
10512;DHT22;5304;48.604;2.096;2022-09-16T10:54:25;19.30;99.90
10512;DHT22;5304;48.604;2.096;2022-09-16T10:57:37;19.40;99.90
10512;DHT22;5304;48.604;2.096;2022-09-16T11:00:29;19.60;99.90
10512;DHT22;5304;48.604;2.096;2022-09-16T11:09:33;19.60;99.90
10512;DHT22;5304;48.604;2.096;2022-09-16T11:15:45;19.80;99.90
10512;DHT22;5304;48.604;2.096;2022-09-16T11:30:39;20.20;99.90
10512;DHT22;5304;48.604;2.096;2022-09-16T11:43:05;20.90;99.90
10512;DHT22;5304;48.604;2.096;2022-09-16T12:01:34;20.10;99.90
10512;DHT22;5304;48.604;2.096;2022-09-16T12:04:30;20.10;99.90
10512;DHT22;5304;48.604;2.096;2022-09-16T12:10:25;20.50;99.90
10512;DHT22;5304;48.604;2.096;2022-09-16T12:13:15;20.80;99.90
10512;DHT22;5304;48.604;2.096;2022-09-16T12:16:04;20.70;99.90
10512;DHT22;5304;48.604;2.096;2022-09-16T12:18:56;20.80;99.90
10512;DHT22;5304;48.604;2.096;2022-09-16T12:21:53;20.90;99.90
10512;DHT22;5304;48.604;2.096;2022-09-16T12:24:44;20.90;99.90
10512;DHT22;5304;48.604;2.096;2022-09-16T12:27:39;20.70;99.90
10512;DHT22;5304;48.604;2.096;2022-09-16T12:30:30;20.50;99.90
10512;DHT22;5304;48.604;2.096;2022-09-16T12:33:26;20.10;99.90
10512;DHT22;5304;48.604;2.096;2022-09-16T12:36:16;20.00;99.90
10512;DHT22;5304;48.604;2.096;2022-09-16T12:39:01;20.00;99.90
10512;DHT22;5304;48.604;2.096;2022-09-16T12:47:52;19.90;99.90
10512;DHT22;5304;48.604;2.096;2022-09-16T13:00:09;19.50;99.90
10512;DHT22;5304;48.604;2.096;2022-09-16T13:03:17;19.30;99.90
10512;DHT22;5304;48.604;2.096;2022-09-16T13:06:06;19.20;99.90
10512;DHT22;5304;48.604;2.096;2022-09-16T13:12:20;19.00;99.90
10512;DHT22;5304;48.604;2.096;2022-09-16T13:15:06;18.90;99.90
10512;DHT22;5304;48.604;2.096;2022-09-16T13:17:51;19.00;99.90
10512;DHT22;5304;48.604;2.096;2022-09-16T13:20:40;19.10;99.90
10512;DHT22;5304;48.604;2.096;2022-09-16T13:23:30;19.20;99.90
10512;DHT22;5304;48.604;2.096;2022-09-16T13:26:17;19.20;99.90
10512;DHT22;5304;48.604;2.096;2022-09-16T13:29:01;19.20;99.90
10512;DHT22;5304;48.604;2.096;2022-09-16T13:31:47;19.20;99.90
10512;DHT22;5304;48.604;2.096;2022-09-16T13:34:32;19.10;99.90
10512;DHT22;5304;48.604;2.096;2022-09-16T13:37:24;19.10;99.90
10512;DHT22;5304;48.604;2.096;2022-09-16T13:40:35;19.00;99.90
10512;DHT22;5304;48.604;2.096;2022-09-16T13:46:35;18.90;99.90
10512;DHT22;5304;48.604;2.096;2022-09-16T13:49:24;19.10;99.90
10512;DHT22;5304;48.604;2.096;2022-09-16T13:52:14;19.10;99.90
10512;DHT22;5304;48.604;2.096;2022-09-16T13:55:01;19.20;99.90
10512;DHT22;5304;48.604;2.096;2022-09-16T14:00:43;19.80;99.90
10512;DHT22;5304;48.604;2.096;2022-09-16T14:06:36;19.50;99.90
10512;DHT22;5304;48.604;2.096;2022-09-16T14:15:20;19.20;99.90
10512;DHT22;5304;48.604;2.096;2022-09-16T14:18:06;19.30;99.90
10512;DHT22;5304;48.604;2.096;2022-09-16T14:21:05;19.30;99.90
10512;DHT22;5304;48.604;2.096;2022-09-16T14:23:52;19.30;99.90
10512;DHT22;5304;48.604;2.096;2022-09-16T14:26:36;19.20;99.90
10512;DHT22;5304;48.604;2.096;2022-09-16T14:29:22;19.10;99.90
10512;DHT22;5304;48.604;2.096;2022-09-16T14:32:12;19.00;99.90
10512;DHT22;5304;48.604;2.096;2022-09-16T14:35:01;19.10;99.90
10512;DHT22;5304;48.604;2.096;2022-09-16T14:37:49;19.10;99.90
10512;DHT22;5304;48.604;2.096;2022-09-16T14:40:37;19.20;99.90
10512;DHT22;5304;48.604;2.096;2022-09-16T14:43:23;19.30;99.90
10512;DHT22;5304;48.604;2.096;2022-09-16T14:46:08;19.50;99.90
10512;DHT22;5304;48.604;2.096;2022-09-16T14:48:53;19.70;99.90
10512;DHT22;5304;48.604;2.096;2022-09-16T14:51:38;19.90;99.90
10512;DHT22;5304;48.604;2.096;2022-09-16T14:54:26;19.90;99.90
10512;DHT22;5304;48.604;2.096;2022-09-16T14:57:20;20.00;99.90
10512;DHT22;5304;48.604;2.096;2022-09-16T15:00:11;20.20;99.90
10512;DHT22;5304;48.604;2.096;2022-09-16T15:03:02;20.30;99.90
10512;DHT22;5304;48.604;2.096;2022-09-16T15:05:48;20.20;99.90
10512;DHT22;5304;48.604;2.096;2022-09-16T15:08:50;20.30;99.90
10512;DHT22;5304;48.604;2.096;2022-09-16T15:11:49;20.00;99.90
10512;DHT22;5304;48.604;2.096;2022-09-16T15:14:37;19.60;99.90
10512;DHT22;5304;48.604;2.096;2022-09-16T15:17:25;19.10;99.90
10512;DHT22;5304;48.604;2.096;2022-09-16T15:20:21;18.70;99.90
10512;DHT22;5304;48.604;2.096;2022-09-16T15:23:22;18.50;99.90
10512;DHT22;5304;48.604;2.096;2022-09-16T15:26:12;18.20;99.90
10512;DHT22;5304;48.604;2.096;2022-09-16T15:29:01;18.10;99.90
10512;DHT22;5304;48.604;2.096;2022-09-16T15:31:46;18.00;99.90
10512;DHT22;5304;48.604;2.096;2022-09-16T15:34:30;17.80;99.90
10512;DHT22;5304;48.604;2.096;2022-09-16T15:37:30;17.60;99.90
10512;DHT22;5304;48.604;2.096;2022-09-16T15:43:23;17.50;99.90
10512;DHT22;5304;48.604;2.096;2022-09-16T15:46:19;17.50;99.90
10512;DHT22;5304;48.604;2.096;2022-09-16T15:49:10;17.60;99.90
10512;DHT22;5304;48.604;2.096;2022-09-16T15:52:05;17.60;99.90
10512;DHT22;5304;48.604;2.096;2022-09-16T15:54:54;17.70;99.90
10512;DHT22;5304;48.604;2.096;2022-09-16T15:57:43;17.90;99.90
10512;DHT22;5304;48.604;2.096;2022-09-16T16:00:57;18.10;99.90
10512;DHT22;5304;48.604;2.096;2022-09-16T16:03:53;18.20;99.90
10512;DHT22;5304;48.604;2.096;2022-09-16T16:07:02;18.20;99.90
10512;DHT22;5304;48.604;2.096;2022-09-16T16:09:47;18.20;99.90
10512;DHT22;5304;48.604;2.096;2022-09-16T16:12:32;18.20;99.90
10512;DHT22;5304;48.604;2.096;2022-09-16T16:15:23;18.20;99.90
10512;DHT22;5304;48.604;2.096;2022-09-16T16:18:08;18.20;99.90
10512;DHT22;5304;48.604;2.096;2022-09-16T16:20:53;18.10;99.90
10512;DHT22;5304;48.604;2.096;2022-09-16T16:23:38;17.90;99.90
10512;DHT22;5304;48.604;2.096;2022-09-16T16:26:23;17.90;99.90
10512;DHT22;5304;48.604;2.096;2022-09-16T16:29:07;17.90;99.90
10512;DHT22;5304;48.604;2.096;2022-09-16T16:32:12;17.90;99.90
10512;DHT22;5304;48.604;2.096;2022-09-16T16:34:57;17.80;99.90
10512;DHT22;5304;48.604;2.096;2022-09-16T16:37:42;17.80;99.90
10512;DHT22;5304;48.604;2.096;2022-09-16T16:40:26;17.70;99.90
10512;DHT22;5304;48.604;2.096;2022-09-16T16:43:11;17.70;99.90
10512;DHT22;5304;48.604;2.096;2022-09-16T16:45:56;17.60;99.90
10512;DHT22;5304;48.604;2.096;2022-09-16T16:48:40;17.60;99.90
10512;DHT22;5304;48.604;2.096;2022-09-16T16:51:25;17.60;99.90
10512;DHT22;5304;48.604;2.096;2022-09-16T16:54:11;17.70;99.90
10512;DHT22;5304;48.604;2.096;2022-09-16T16:56:58;17.60;99.90
10512;DHT22;5304;48.604;2.096;2022-09-16T16:59:42;17.70;99.90
10512;DHT22;5304;48.604;2.096;2022-09-16T17:02:27;17.60;99.90
10512;DHT22;5304;48.604;2.096;2022-09-16T17:05:11;17.60;99.90
10512;DHT22;5304;48.604;2.096;2022-09-16T17:07:56;17.50;99.90
10512;DHT22;5304;48.604;2.096;2022-09-16T17:10:40;17.40;99.90
10512;DHT22;5304;48.604;2.096;2022-09-16T17:13:27;17.30;99.90
10512;DHT22;5304;48.604;2.096;2022-09-16T17:16:13;17.20;99.90
10512;DHT22;5304;48.604;2.096;2022-09-16T17:19:00;17.20;99.90
10512;DHT22;5304;48.604;2.096;2022-09-16T17:21:45;17.10;99.90
10512;DHT22;5304;48.604;2.096;2022-09-16T17:24:30;17.10;99.90
10512;DHT22;5304;48.604;2.096;2022-09-16T17:27:15;17.20;99.90
10512;DHT22;5304;48.604;2.096;2022-09-16T17:30:03;17.20;99.90
10512;DHT22;5304;48.604;2.096;2022-09-16T17:32:47;17.20;99.90
10512;DHT22;5304;48.604;2.096;2022-09-16T17:35:31;17.20;99.90
10512;DHT22;5304;48.604;2.096;2022-09-16T17:38:16;17.20;99.90
10512;DHT22;5304;48.604;2.096;2022-09-16T17:41:05;17.00;99.90
10512;DHT22;5304;48.604;2.096;2022-09-16T17:43:50;16.90;99.90
10512;DHT22;5304;48.604;2.096;2022-09-16T17:46:34;16.80;99.90
10512;DHT22;5304;48.604;2.096;2022-09-16T17:49:21;16.60;99.90
10512;DHT22;5304;48.604;2.096;2022-09-16T17:52:05;16.50;99.90
10512;DHT22;5304;48.604;2.096;2022-09-16T17:54:50;16.40;99.90
10512;DHT22;5304;48.604;2.096;2022-09-16T17:57:35;16.20;99.90
10512;DHT22;5304;48.604;2.096;2022-09-16T18:00:19;16.10;99.90
10512;DHT22;5304;48.604;2.096;2022-09-16T18:03:04;16.00;99.90
10512;DHT22;5304;48.604;2.096;2022-09-16T18:05:49;15.80;99.90
10512;DHT22;5304;48.604;2.096;2022-09-16T18:08:35;15.80;99.90
10512;DHT22;5304;48.604;2.096;2022-09-16T18:11:20;15.80;99.90
10512;DHT22;5304;48.604;2.096;2022-09-16T18:14:06;15.80;99.90
10512;DHT22;5304;48.604;2.096;2022-09-16T18:16:51;15.90;99.90
10512;DHT22;5304;48.604;2.096;2022-09-16T18:19:35;16.00;99.90
10512;DHT22;5304;48.604;2.096;2022-09-16T18:22:20;15.90;99.90
10512;DHT22;5304;48.604;2.096;2022-09-16T18:25:05;15.90;99.90
10512;DHT22;5304;48.604;2.096;2022-09-16T18:27:49;15.80;99.90
10512;DHT22;5304;48.604;2.096;2022-09-16T18:30:34;15.70;99.90
10512;DHT22;5304;48.604;2.096;2022-09-16T18:33:18;15.50;99.90
10512;DHT22;5304;48.604;2.096;2022-09-16T18:36:06;15.30;99.90
10512;DHT22;5304;48.604;2.096;2022-09-16T18:38:55;15.30;99.90
10512;DHT22;5304;48.604;2.096;2022-09-16T18:41:41;15.30;99.90
10512;DHT22;5304;48.604;2.096;2022-09-16T18:44:27;15.20;99.90
10512;DHT22;5304;48.604;2.096;2022-09-16T18:47:12;15.20;99.90
10512;DHT22;5304;48.604;2.096;2022-09-16T18:49:56;15.30;99.90
10512;DHT22;5304;48.604;2.096;2022-09-16T18:52:40;15.20;99.90
10512;DHT22;5304;48.604;2.096;2022-09-16T18:55:25;15.20;99.90
10512;DHT22;5304;48.604;2.096;2022-09-16T18:58:09;15.10;99.90
10512;DHT22;5304;48.604;2.096;2022-09-16T19:00:53;15.20;99.90
10512;DHT22;5304;48.604;2.096;2022-09-16T19:03:38;15.20;99.90
10512;DHT22;5304;48.604;2.096;2022-09-16T19:06:27;15.20;99.90
10512;DHT22;5304;48.604;2.096;2022-09-16T19:09:14;15.10;99.90
10512;DHT22;5304;48.604;2.096;2022-09-16T19:11:59;15.20;99.90
10512;DHT22;5304;48.604;2.096;2022-09-16T19:14:44;15.10;99.90
10512;DHT22;5304;48.604;2.096;2022-09-16T19:17:28;15.10;99.90
10512;DHT22;5304;48.604;2.096;2022-09-16T19:20:13;15.10;99.90
10512;DHT22;5304;48.604;2.096;2022-09-16T19:22:58;15.00;99.90
10512;DHT22;5304;48.604;2.096;2022-09-16T19:25:42;14.90;99.90
10512;DHT22;5304;48.604;2.096;2022-09-16T19:28:27;14.80;99.90
10512;DHT22;5304;48.604;2.096;2022-09-16T19:31:13;14.70;99.90
10512;DHT22;5304;48.604;2.096;2022-09-16T19:33:58;14.60;99.90
10512;DHT22;5304;48.604;2.096;2022-09-16T19:36:43;14.40;99.90
10512;DHT22;5304;48.604;2.096;2022-09-16T19:39:27;14.40;99.90
10512;DHT22;5304;48.604;2.096;2022-09-16T19:42:12;14.30;99.90
10512;DHT22;5304;48.604;2.096;2022-09-16T19:44:56;14.20;99.90
10512;DHT22;5304;48.604;2.096;2022-09-16T19:47:41;14.00;99.90
10512;DHT22;5304;48.604;2.096;2022-09-16T19:50:25;14.00;99.90
10512;DHT22;5304;48.604;2.096;2022-09-16T19:53:11;13.90;99.90
10512;DHT22;5304;48.604;2.096;2022-09-16T19:56:01;13.80;99.90
10512;DHT22;5304;48.604;2.096;2022-09-16T19:58:46;13.80;99.90
10512;DHT22;5304;48.604;2.096;2022-09-16T20:01:32;13.70;99.90
10512;DHT22;5304;48.604;2.096;2022-09-16T20:04:17;13.60;99.90
10512;DHT22;5304;48.604;2.096;2022-09-16T20:07:03;13.50;99.90
10512;DHT22;5304;48.604;2.096;2022-09-16T20:09:48;13.50;99.90
10512;DHT22;5304;48.604;2.096;2022-09-16T20:12:33;13.40;99.90
10512;DHT22;5304;48.604;2.096;2022-09-16T20:15:17;13.30;99.90
10512;DHT22;5304;48.604;2.096;2022-09-16T20:18:01;13.20;99.90
10512;DHT22;5304;48.604;2.096;2022-09-16T20:20:46;13.10;99.90
10512;DHT22;5304;48.604;2.096;2022-09-16T20:23:32;13.00;99.90
10512;DHT22;5304;48.604;2.096;2022-09-16T20:26:17;13.00;99.90
10512;DHT22;5304;48.604;2.096;2022-09-16T20:29:03;13.00;99.90
10512;DHT22;5304;48.604;2.096;2022-09-16T20:31:50;12.90;99.90
10512;DHT22;5304;48.604;2.096;2022-09-16T20:34:35;12.80;99.90
10512;DHT22;5304;48.604;2.096;2022-09-16T20:37:19;12.70;99.90
10512;DHT22;5304;48.604;2.096;2022-09-16T20:40:05;12.60;99.90
10512;DHT22;5304;48.604;2.096;2022-09-16T20:42:50;12.50;99.90
10512;DHT22;5304;48.604;2.096;2022-09-16T20:45:35;12.50;99.90
10512;DHT22;5304;48.604;2.096;2022-09-16T20:48:19;12.50;99.90
10512;DHT22;5304;48.604;2.096;2022-09-16T20:51:09;12.40;99.90
10512;DHT22;5304;48.604;2.096;2022-09-16T20:56:41;12.40;99.90